Time;durP1;ratioP1;P1;durP2;ratioP2;P2;SDS_P1;SDS_P2;PMS_P1;PMS_P2;Temp;Humidity;BMP_temperature;BMP_pressure;BME280_temperature;BME280_humidity;BME280_pressure;Samples;Min_cycle;Max_cycle;Signal;HPM_P1;HPM_P2
2022/09/14 00:00:05;;;;;;;;;;;;;;;22.03;58.11;98911.97;1086505;54;19950;-76
2022/09/14 00:01:07;;;;;;;;;;;;;;;22.01;58.97;98903.25;1086275;54;19950;-77
2022/09/14 00:02:11;;;;;;;;;;;;;;;21.99;57.98;98905.41;1087065;31;20454;-78
2022/09/14 00:03:15;;;;;;;;;;;;;;;22.00;57.23;98899.69;1086229;54;19974;-79
2022/09/14 00:04:20;;;;;;;;;;;;;;;22.02;57.38;98897.56;1086241;54;19950;-78
2022/09/14 00:05:22;;;;;;;;;;;;;;;21.96;58.36;98896.66;1086409;54;20039;-77
2022/09/14 00:06:26;;;;;;;;;;;;;;;21.93;58.08;98897.13;1086973;39;20419;-78
2022/09/14 00:07:27;;;;;;;;;;;;;;;21.93;58.21;98893.59;1086363;54;19950;-78
2022/09/14 00:08:30;;;;;;;;;;;;;;;21.92;58.17;98892.75;1086437;54;19953;-78
2022/09/14 00:09:34;;;;;;;;;;;;;;;21.89;59.01;98890.56;1087177;39;20424;-78
2022/09/14 00:10:37;;;;;;;;;;;;;;;21.85;58.85;98889.38;1086253;54;19954;-78
2022/09/14 00:11:41;;;;;;;;;;;;;;;21.85;59.22;98889.38;1086318;54;19962;-78
2022/09/14 00:12:42;;;;;;;;;;;;;;;21.83;59.23;98886.09;1086216;54;19973;-78
2022/09/14 00:13:46;;;;;;;;;;;;;;;21.81;59.25;98883.63;1086358;54;19950;-76
2022/09/14 00:14:47;;;;;;;;;;;;;;;21.79;58.43;98879.50;1086723;39;20439;-79
2022/09/14 00:15:51;;;;;;;;;;;;;;;21.76;58.77;98869.13;1086610;54;19938;-77
2022/09/14 00:16:52;;;;;;;;;;;;;;;21.75;59.46;98875.63;1086557;54;19946;-79
2022/09/14 00:17:56;;;;;;;;;;;;;;;21.72;59.12;98873.41;1086758;54;20034;-77
2022/09/14 00:19:04;;;;;;;;;;;;;;;21.69;59.06;98863.03;1086245;54;20815;-76
2022/09/14 00:20:08;;;;;;;;;;;;;;;21.71;59.18;98869.03;1086411;54;19958;-78
2022/09/14 00:21:10;;;;;;;;;;;;;;;21.72;58.89;98867.97;1086008;54;19953;-80
2022/09/14 00:22:14;;;;;;;;;;;;;;;21.70;59.13;98872.84;1085979;54;19946;-78
2022/09/14 00:23:15;;;;;;;;;;;;;;;21.69;58.99;98868.47;1086213;54;19973;-78
2022/09/14 00:24:19;;;;;;;;;;;;;;;21.67;59.57;98863.28;1086040;54;20033;-77
2022/09/14 00:25:20;;;;;;;;;;;;;;;21.64;59.32;98859.13;1086463;54;19958;-79
2022/09/14 00:26:24;;;;;;;;;;;;;;;21.63;59.09;98860.19;1085993;54;19954;-78
2022/09/14 00:27:25;;;;;;;;;;;;;;;21.63;59.26;98851.22;1086129;54;19981;-77
2022/09/14 00:28:29;;;;;;;;;;;;;;;21.62;59.27;98858.59;1086276;54;20070;-78
2022/09/14 00:29:30;;;;;;;;;;;;;;;21.62;59.28;98849.59;1086127;54;20531;-78
2022/09/14 00:30:34;;;;;;;;;;;;;;;21.57;59.79;98855.72;1086057;54;19950;-78
2022/09/14 00:31:35;;;;;;;;;;;;;;;21.51;60.03;98857.53;1085908;54;20826;-77
2022/09/14 00:32:39;;;;;;;;;;;;;;;21.43;60.11;98865.28;1085861;54;20559;-79
2022/09/14 00:33:41;;;;;;;;;;;;;;;21.37;60.57;98869.81;1086288;54;20456;-79
2022/09/14 00:34:47;;;;;;;;;;;;;;;21.44;60.46;98872.38;1086177;54;20560;-79
2022/09/14 00:35:48;;;;;;;;;;;;;;;21.48;60.36;98868.06;1086422;54;19982;-77
2022/09/14 00:36:53;;;;;;;;;;;;;;;21.47;60.64;98869.16;1086443;54;19973;-80
2022/09/14 00:37:54;;;;;;;;;;;;;;;21.40;61.20;98869.28;1086641;54;19965;-80
2022/09/14 00:38:59;;;;;;;;;;;;;;;21.44;60.63;98869.66;1086668;54;19986;-78
2022/09/14 00:40:00;;;;;;;;;;;;;;;21.44;60.16;98866.94;1086850;54;19966;-78
2022/09/14 00:41:05;;;;;;;;;;;;;;;21.47;59.92;98877.28;1086616;54;19947;-80
2022/09/14 00:42:06;;;;;;;;;;;;;;;21.29;60.85;98881.88;1086562;54;19957;-78
2022/09/14 00:43:14;;;;;;;;;;;;;;;21.23;61.32;98882.88;1087011;39;20336;-78
2022/09/14 00:44:30;;;;;;;;;;;;;;;21.24;61.25;98884.53;1086548;54;19950;-78
2022/09/14 00:45:34;;;;;;;;;;;;;;;21.31;61.02;98882.47;1086780;54;20010;-79
2022/09/14 00:46:36;;;;;;;;;;;;;;;21.32;61.48;98870.53;1086637;54;19958;-78
2022/09/14 00:47:40;;;;;;;;;;;;;;;21.32;61.17;98865.09;1086406;54;19947;-79
2022/09/14 00:48:41;;;;;;;;;;;;;;;21.33;61.12;98866.75;1086665;54;19954;-79
2022/09/14 00:49:48;;;;;;;;;;;;;;;21.32;61.18;98859.66;1086461;54;19970;-79
2022/09/14 00:50:49;;;;;;;;;;;;;;;21.33;61.45;98850.44;1086569;54;20575;-80
2022/09/14 00:51:56;;;;;;;;;;;;;;;21.33;61.08;98849.59;1086464;54;19950;-78
2022/09/14 00:52:58;;;;;;;;;;;;;;;21.32;61.53;98845.22;1086345;54;20523;-79
2022/09/14 00:54:03;;;;;;;;;;;;;;;21.31;61.65;98846.28;1086416;54;19957;-78
2022/09/14 00:55:06;;;;;;;;;;;;;;;21.18;62.70;98839.28;1086440;54;20019;-78
2022/09/14 00:56:10;;;;;;;;;;;;;;;21.17;62.28;98830.31;1086589;54;19958;-79
2022/09/14 00:57:11;;;;;;;;;;;;;;;21.06;63.25;98831.19;1086642;54;19957;-79
2022/09/14 00:58:14;;;;;;;;;;;;;;;21.07;62.44;98832.84;1086477;54;19970;-77
2022/09/14 00:59:18;;;;;;;;;;;;;;;21.06;63.03;98822.22;1086919;54;20015;-79
2022/09/14 01:00:22;;;;;;;;;;;;;;;21.08;62.67;98820.06;1087111;54;20579;-78
2022/09/14 01:01:24;;;;;;;;;;;;;;;21.05;63.43;98821.38;1087188;39;20477;-77
2022/09/14 01:02:29;;;;;;;;;;;;;;;21.02;62.67;98820.00;1086882;54;19957;-78
2022/09/14 01:03:30;;;;;;;;;;;;;;;21.06;62.47;98822.22;1086652;54;19977;-78
2022/09/14 01:04:34;;;;;;;;;;;;;;;21.08;62.25;98825.50;1086805;54;20623;-77
2022/09/14 01:05:47;;;;;;;;;;;;;;;21.08;62.71;98825.50;1087008;54;19954;-79
2022/09/14 01:06:52;;;;;;;;;;;;;;;21.09;62.43;98822.56;1086943;54;19939;-78
2022/09/14 01:08:07;;;;;;;;;;;;;;;21.08;63.05;98828.22;1086912;54;20024;-76
2022/09/14 01:09:13;;;;;;;;;;;;;;;21.04;63.27;98817.88;1087010;54;19939;-76
2022/09/14 01:10:26;;;;;;;;;;;;;;;20.96;64.50;98812.81;1086908;54;19983;-81
2022/09/14 01:11:38;;;;;;;;;;;;;;;20.86;65.46;98820.78;1086750;54;19977;-77
2022/09/14 01:12:45;;;;;;;;;;;;;;;20.81;65.37;98820.66;1086737;54;19950;-81
2022/09/14 01:13:54;;;;;;;;;;;;;;;20.79;65.07;98820.06;1086932;54;19970;-80
2022/09/14 01:14:59;;;;;;;;;;;;;;;20.74;65.01;98820.78;1087657;46;19972;-80
2022/09/14 01:16:08;;;;;;;;;;;;;;;20.71;65.20;98813.94;1086952;54;19958;-80
2022/09/14 01:17:12;;;;;;;;;;;;;;;20.72;65.39;98817.50;1086994;54;19953;-79
2022/09/14 01:18:18;;;;;;;;;;;;;;;20.73;65.36;98819.16;1086836;54;19946;-80
2022/09/14 01:19:24;;;;;;;;;;;;;;;20.72;65.12;98812.88;1086899;54;20491;-79
2022/09/14 01:20:30;;;;;;;;;;;;;;;20.75;65.20;98813.50;1086868;54;19943;-80
2022/09/14 01:21:34;;;;;;;;;;;;;;;20.76;65.32;98799.66;1086865;54;19950;-79
2022/09/14 01:22:44;;;;;;;;;;;;;;;20.77;65.13;98805.94;1086743;54;19946;-80
2022/09/14 01:23:49;;;;;;;;;;;;;;;20.77;65.40;98803.22;1086804;54;20512;-78
2022/09/14 01:24:55;;;;;;;;;;;;;;;20.75;65.59;98799.91;1087004;54;19942;-81
2022/09/14 01:26:06;;;;;;;;;;;;;;;20.76;65.04;98788.81;1086852;54;19947;-79
2022/09/14 01:27:31;;;;;;;;;;;;;;;20.72;65.35;98791.16;1087135;54;19945;-78
2022/09/14 01:28:40;;;;;;;;;;;;;;;20.62;66.21;98790.94;1087273;54;19950;-78
2022/09/14 01:29:46;;;;;;;;;;;;;;;20.54;65.99;98785.91;1088415;39;20214;-80
2022/09/14 01:30:48;;;;;;;;;;;;;;;20.51;66.23;98779.06;1087234;54;20962;-79
2022/09/14 01:31:55;;;;;;;;;;;;;;;20.47;66.75;98777.09;1087238;54;19966;-79
2022/09/14 01:33:01;;;;;;;;;;;;;;;20.41;66.39;98774.25;1087187;54;19953;-80
2022/09/14 01:34:09;;;;;;;;;;;;;;;20.41;66.70;98779.69;1087090;54;19957;-79
2022/09/14 01:35:12;;;;;;;;;;;;;;;20.37;66.92;98769.53;1087113;54;19949;-79
2022/09/14 01:36:17;;;;;;;;;;;;;;;20.34;66.65;98765.44;1086762;54;19950;-79
2022/09/14 01:37:21;;;;;;;;;;;;;;;20.35;67.04;98774.41;1087024;54;19946;-78
2022/09/14 01:38:29;;;;;;;;;;;;;;;20.32;67.01;98772.97;1087277;54;19966;-80
2022/09/14 01:39:31;;;;;;;;;;;;;;;20.24;67.21;98770.63;1087258;54;19966;-79
2022/09/14 01:40:36;;;;;;;;;;;;;;;20.15;67.93;98766.66;1087232;54;19973;-78
2022/09/14 01:41:41;;;;;;;;;;;;;;;20.18;67.69;98774.31;1087329;54;19947;-79
2022/09/14 01:42:47;;;;;;;;;;;;;;;20.14;67.94;98775.84;1087200;54;19958;-79
2022/09/14 01:43:53;;;;;;;;;;;;;;;20.19;67.68;98786.81;1086958;54;19974;-79
2022/09/14 01:44:58;;;;;;;;;;;;;;;20.26;66.93;98790.22;1086824;54;19998;-79
2022/09/14 01:46:03;;;;;;;;;;;;;;;20.30;67.46;98790.56;1087074;54;19957;-80
2022/09/14 01:47:11;;;;;;;;;;;;;;;20.33;67.59;98792.81;1087142;54;19974;-80
2022/09/14 01:48:13;;;;;;;;;;;;;;;20.37;66.73;98792.09;1087278;54;20065;-81
2022/09/14 01:49:18;;;;;;;;;;;;;;;20.38;66.53;98796.47;1087581;54;19951;-81
2022/09/14 01:50:22;;;;;;;;;;;;;;;20.41;66.60;98806.81;1087569;54;19976;-78
2022/09/14 01:51:31;;;;;;;;;;;;;;;20.42;66.54;98797.63;1087682;46;19939;-80
2022/09/14 01:52:36;;;;;;;;;;;;;;;20.46;66.22;98810.72;1087544;54;19958;-79
2022/09/14 01:53:43;;;;;;;;;;;;;;;20.43;66.87;98809.31;1087374;54;19942;-78
2022/09/14 01:54:47;;;;;;;;;;;;;;;20.47;66.54;98815.09;1086794;54;20433;-80
2022/09/14 01:55:53;;;;;;;;;;;;;;;20.50;66.32;98812.72;1087736;46;19943;-79
2022/09/14 01:56:57;;;;;;;;;;;;;;;20.50;66.73;98814.63;1086901;54;19946;-80
2022/09/14 01:58:03;;;;;;;;;;;;;;;20.44;67.89;98823.69;1086535;54;20002;-79
2022/09/14 01:59:10;;;;;;;;;;;;;;;20.49;67.34;98821.91;1087202;54;19962;-81
2022/09/14 02:00:17;;;;;;;;;;;;;;;20.53;67.46;98835.81;1087077;54;20014;-81
2022/09/14 02:01:21;;;;;;;;;;;;;;;20.54;67.95;98848.34;1087454;54;19970;-79
2022/09/14 02:02:27;;;;;;;;;;;;;;;20.46;69.16;98867.72;1087412;54;19946;-81
2022/09/14 02:03:31;;;;;;;;;;;;;;;20.25;70.35;98881.66;1087470;54;19942;-80
2022/09/14 02:04:39;;;;;;;;;;;;;;;20.09;71.58;98883.19;1087605;54;20515;-81
2022/09/14 02:05:44;;;;;;;;;;;;;;;19.97;72.51;98904.06;1087635;54;19942;-80
2022/09/14 02:06:49;;;;;;;;;;;;;;;19.89;73.51;98907.09;1087670;54;19962;-84
2022/09/14 02:07:51;;;;;;;;;;;;;;;19.82;74.51;98903.66;1087676;54;19951;-82
2022/09/14 02:08:55;;;;;;;;;;;;;;;19.62;76.31;98908.31;1087622;54;19927;-82
2022/09/14 02:09:56;;;;;;;;;;;;;;;19.62;76.04;98918.34;1088430;46;19945;-82
2022/09/14 02:11:00;;;;;;;;;;;;;;;19.44;77.06;98927.34;1087782;54;19957;-81
2022/09/14 02:12:02;;;;;;;;;;;;;;;19.30;77.94;98922.13;1087773;54;20004;-82
2022/09/14 02:13:06;;;;;;;;;;;;;;;19.42;77.66;98916.75;1087670;54;19935;-84
2022/09/14 02:14:10;;;;;;;;;;;;;;;19.42;77.54;98905.91;1087802;54;19961;-82
2022/09/14 02:15:15;;;;;;;;;;;;;;;19.45;76.85;98908.16;1087669;54;19942;-83
2022/09/14 02:16:16;;;;;;;;;;;;;;;19.45;76.74;98915.47;1087635;54;19957;-81
2022/09/14 02:17:21;;;;;;;;;;;;;;;19.34;77.77;98917.06;1087702;54;19966;-80
2022/09/14 02:18:22;;;;;;;;;;;;;;;19.22;79.08;98932.44;1087753;54;19998;-85
2022/09/14 02:19:27;;;;;;;;;;;;;;;19.17;79.28;98928.56;1087628;54;19943;-84
2022/09/14 02:20:31;;;;;;;;;;;;;;;19.31;78.10;98928.38;1087569;54;20767;-82
2022/09/14 02:22:38;;;;;;;;;;;;;;;19.21;79.89;98956.00;1087542;54;19938;-82
2022/09/14 02:23:39;;;;;;;;;;;;;;;19.13;79.65;98948.19;1088730;39;20241;-81
2022/09/14 02:24:43;;;;;;;;;;;;;;;19.20;79.09;98948.09;1088086;54;19965;-84
2022/09/14 02:25:45;;;;;;;;;;;;;;;19.27;78.83;98943.44;1088217;47;19938;-81
2022/09/14 02:26:54;;;;;;;;;;;;;;;19.26;80.96;98941.78;1088127;54;19938;-83
2022/09/14 02:27:55;;;;;;;;;;;;;;;19.22;80.68;98929.75;1088611;39;20146;-81
2022/09/14 02:28:59;;;;;;;;;;;;;;;19.20;80.75;98926.44;1088500;47;19942;-81
2022/09/14 02:30:03;;;;;;;;;;;;;;;19.15;81.21;98913.56;1088151;54;20021;-80
2022/09/14 02:31:14;;;;;;;;;;;;;;;19.07;82.17;98906.59;1088334;46;19962;-81
2022/09/14 02:32:21;;;;;;;;;;;;;;;19.08;80.78;98894.69;1091787;46;19990;-81
2022/09/14 02:33:29;;;;;;;;;;;;;;;19.06;81.89;98896.81;1088128;54;19934;-80
2022/09/14 02:34:33;;;;;;;;;;;;;;;19.02;82.07;98896.47;1089452;46;19927;-81
2022/09/14 02:35:39;;;;;;;;;;;;;;;19.00;81.80;98895.00;1088140;54;19942;-82
2022/09/14 02:36:45;;;;;;;;;;;;;;;18.99;82.42;98893.34;1087982;54;19933;-84
2022/09/14 02:37:53;;;;;;;;;;;;;;;19.02;81.25;98901.88;1088982;46;19927;-80
2022/09/14 02:39:00;;;;;;;;;;;;;;;19.07;81.02;98906.59;1087138;54;19942;-80
2022/09/14 02:40:07;;;;;;;;;;;;;;;19.09;81.32;98904.47;1086903;54;20006;-81
2022/09/14 02:41:15;;;;;;;;;;;;;;;19.08;80.47;98894.69;1087001;54;19938;-80
2022/09/14 02:42:36;;;;;;;;;;;;;;;19.08;81.01;98881.16;1086816;54;20018;-80
2022/09/14 02:43:41;;;;;;;;;;;;;;;19.04;81.33;98877.25;1086783;54;19962;-80
2022/09/14 02:44:51;;;;;;;;;;;;;;;18.94;82.70;98891.31;1086901;54;19959;-79
2022/09/14 02:46:00;;;;;;;;;;;;;;;18.88;83.42;98892.22;1086815;54;20520;-82
2022/09/14 02:47:06;;;;;;;;;;;;;;;18.94;83.25;98895.94;1087012;54;19973;-81
2022/09/14 02:48:11;;;;;;;;;;;;;;;18.90;84.01;98895.53;1087225;54;19958;-81
2022/09/14 02:49:20;;;;;;;;;;;;;;;18.89;83.45;98901.19;1092265;39;20423;-82
2022/09/14 02:50:24;;;;;;;;;;;;;;;18.88;83.35;98894.94;1087230;54;19943;-83
2022/09/14 02:51:30;;;;;;;;;;;;;;;18.92;82.78;98898.00;1087400;54;19947;-82
2022/09/14 02:52:33;;;;;;;;;;;;;;;18.97;82.06;98884.66;1087439;54;19951;-83
2022/09/14 02:53:41;;;;;;;;;;;;;;;18.96;82.63;98875.69;1088916;39;20178;-82
2022/09/14 02:54:46;;;;;;;;;;;;;;;18.93;83.39;98875.31;1090322;47;19962;-82
2022/09/14 02:55:53;;;;;;;;;;;;;;;18.94;83.06;98887.81;1087652;54;19958;-83
2022/09/14 02:56:54;;;;;;;;;;;;;;;18.95;82.67;98884.88;1087373;54;20779;-82
2022/09/14 02:58:02;;;;;;;;;;;;;;;18.99;82.31;98882.53;1089237;47;19938;-82
2022/09/14 02:59:03;;;;;;;;;;;;;;;18.99;83.09;98879.81;1087329;54;19939;-81
2022/09/14 03:00:07;;;;;;;;;;;;;;;18.97;83.37;98880.06;1087391;54;20042;-82
2022/09/14 03:01:12;;;;;;;;;;;;;;;18.98;82.17;98870.88;1087178;54;19973;-82
2022/09/14 03:02:16;;;;;;;;;;;;;;;19.00;81.95;98876.91;1086995;54;19977;-81
2022/09/14 03:03:19;;;;;;;;;;;;;;;19.00;82.02;98878.75;1087036;54;19970;-82
2022/09/14 03:04:23;;;;;;;;;;;;;;;19.04;82.17;98868.28;1087003;54;19943;-81
2022/09/14 03:05:24;;;;;;;;;;;;;;;19.00;82.92;98859.81;1087075;54;19973;-81
2022/09/14 03:06:28;;;;;;;;;;;;;;;18.95;84.10;98851.56;1086558;54;19981;-81
2022/09/14 03:07:29;;;;;;;;;;;;;;;18.91;84.13;98840.31;1086763;54;19950;-82
2022/09/14 03:08:34;;;;;;;;;;;;;;;18.86;84.77;98835.59;1086715;54;20491;-80
2022/09/14 03:09:35;;;;;;;;;;;;;;;18.82;84.58;98834.38;1086870;54;19958;-80
2022/09/14 03:10:40;;;;;;;;;;;;;;;18.79;85.37;98834.03;1086636;54;19954;-81
2022/09/14 03:11:41;;;;;;;;;;;;;;;18.75;85.40;98828.25;1088832;39;20342;-82
2022/09/14 03:12:45;;;;;;;;;;;;;;;18.76;85.09;98832.59;1086898;54;19950;-81
2022/09/14 03:13:47;;;;;;;;;;;;;;;18.77;84.66;98830.72;1086665;54;20449;-81
2022/09/14 03:14:50;;;;;;;;;;;;;;;18.75;85.17;98839.06;1086925;54;19942;-81
2022/09/14 03:15:52;;;;;;;;;;;;;;;18.80;84.05;98835.69;1086814;54;19943;-81
2022/09/14 03:16:59;;;;;;;;;;;;;;;18.83;83.76;98830.63;1086843;54;19965;-81
2022/09/14 03:18:00;;;;;;;;;;;;;;;18.85;83.46;98833.94;1086764;54;19957;-82
2022/09/14 03:19:04;;;;;;;;;;;;;;;18.86;83.40;98835.59;1086995;54;19965;-81
2022/09/14 03:20:06;;;;;;;;;;;;;;;18.86;83.90;98845.59;1086896;54;19958;-82
2022/09/14 03:21:10;;;;;;;;;;;;;;;18.90;83.64;98840.53;1086765;54;19974;-81
2022/09/14 03:22:12;;;;;;;;;;;;;;;18.84;84.48;98837.69;1086578;39;20517;-81
2022/09/14 03:23:16;;;;;;;;;;;;;;;18.86;84.59;98834.75;1086084;54;19965;-80
2022/09/14 03:24:17;;;;;;;;;;;;;;;18.92;84.18;98830.31;1086711;54;19950;-81
2022/09/14 03:25:21;;;;;;;;;;;;;;;18.93;83.13;98822.00;1086722;54;19939;-80
2022/09/14 03:26:24;;;;;;;;;;;;;;;18.94;83.11;98809.28;1086520;54;20002;-81
2022/09/14 03:27:28;;;;;;;;;;;;;;;18.93;83.90;98813.03;1086574;54;19958;-81
2022/09/14 03:28:29;;;;;;;;;;;;;;;18.94;83.55;98814.69;1086682;54;19973;-81
2022/09/14 03:29:34;;;;;;;;;;;;;;;18.94;83.16;98809.28;1086893;54;19950;-81
2022/09/14 03:30:35;;;;;;;;;;;;;;;18.91;83.26;98804.28;1086939;54;19942;-81
2022/09/14 03:31:39;;;;;;;;;;;;;;;18.91;83.45;98804.28;1086891;54;19946;-83
2022/09/14 03:32:43;;;;;;;;;;;;;;;18.92;83.07;98795.13;1089096;39;20518;-81
2022/09/14 03:33:47;;;;;;;;;;;;;;;18.91;83.22;98790.75;1087579;54;20575;-82
2022/09/14 03:34:48;;;;;;;;;;;;;;;18.91;82.97;98785.34;1087868;54;19942;-82
2022/09/14 03:35:52;;;;;;;;;;;;;;;18.92;83.14;98787.84;1087941;54;19954;-84
2022/09/14 03:36:56;;;;;;;;;;;;;;;18.93;82.88;98791.38;1087903;54;19966;-84
2022/09/14 03:37:58;;;;;;;;;;;;;;;18.91;82.82;98782.63;1087922;54;20027;-85
2022/09/14 03:39:02;;;;;;;;;;;;;;;18.88;83.17;98785.81;1088942;46;19949;-84
2022/09/14 03:40:05;;;;;;;;;;;;;;;18.86;83.33;98780.59;1087967;54;19950;-82
2022/09/14 03:41:11;;;;;;;;;;;;;;;18.84;83.43;98780.84;1089404;39;20258;-84
2022/09/14 03:42:13;;;;;;;;;;;;;;;18.84;83.84;98785.44;1087933;54;19949;-83
2022/09/14 03:43:17;;;;;;;;;;;;;;;18.85;83.59;98784.38;1088792;46;19942;-85
2022/09/14 03:44:19;;;;;;;;;;;;;;;18.84;83.48;98788.97;1087874;54;19950;-81
2022/09/14 03:45:23;;;;;;;;;;;;;;;18.82;84.04;98780.25;1087882;54;19957;-85
2022/09/14 03:46:24;;;;;;;;;;;;;;;18.81;84.06;98783.19;1087927;54;19942;-84
2022/09/14 03:47:28;;;;;;;;;;;;;;;18.80;84.41;98787.75;1087964;54;19942;-84
2022/09/14 03:48:32;;;;;;;;;;;;;;;18.78;84.68;98787.19;1087940;54;19943;-84
2022/09/14 03:49:36;;;;;;;;;;;;;;;18.73;85.55;98789.75;1087949;54;19949;-83
2022/09/14 03:50:37;;;;;;;;;;;;;;;18.74;85.47;98787.88;1087860;54;20950;-84
2022/09/14 03:51:41;;;;;;;;;;;;;;;18.74;85.23;98783.28;1088459;39;20376;-81
2022/09/14 03:52:43;;;;;;;;;;;;;;;18.74;85.70;98783.28;1087934;54;19942;-84
2022/09/14 03:53:47;;;;;;;;;;;;;;;18.77;85.43;98780.13;1087954;54;19943;-85
2022/09/14 03:54:48;;;;;;;;;;;;;;;18.81;84.66;98783.19;1087795;54;19946;-84
2022/09/14 03:55:52;;;;;;;;;;;;;;;18.80;84.70;98781.53;1087001;54;21106;-83
2022/09/14 03:56:53;;;;;;;;;;;;;;;18.81;84.50;98792.13;1087303;54;19942;-86
2022/09/14 03:57:57;;;;;;;;;;;;;;;18.78;84.95;98794.47;1087489;54;19943;-85
2022/09/14 03:58:58;;;;;;;;;;;;;;;18.78;84.73;98792.59;1088495;46;19943;-85
2022/09/14 04:00:02;;;;;;;;;;;;;;;18.78;84.35;98797.19;1087086;54;19942;-83
2022/09/14 04:01:03;;;;;;;;;;;;;;;18.63;85.12;98803.00;1087235;54;19943;-82
2022/09/14 04:02:07;;;;;;;;;;;;;;;18.59;85.34;98809.94;1087060;54;19950;-83
2022/09/14 04:03:10;;;;;;;;;;;;;;;18.64;84.77;98810.91;1087513;54;20917;-85
2022/09/14 04:04:24;;;;;;;;;;;;;;;18.54;86.26;98807.91;1087580;54;19949;-85
2022/09/14 04:05:26;;;;;;;;;;;;;;;18.61;85.35;98794.31;1087594;54;19949;-84
2022/09/14 04:06:31;;;;;;;;;;;;;;;18.55;85.91;98796.84;1087483;54;19955;-86
2022/09/14 04:07:35;;;;;;;;;;;;;;;18.57;85.83;98793.91;1087720;54;19969;-86
2022/09/14 04:08:36;;;;;;;;;;;;;;;18.59;86.12;98794.50;1087700;54;19942;-84
2022/09/14 04:09:40;;;;;;;;;;;;;;;18.62;85.51;98791.34;1087571;54;19943;-86
2022/09/14 04:10:41;;;;;;;;;;;;;;;18.61;85.46;98797.81;1087621;54;20634;-85
2022/09/14 04:11:45;;;;;;;;;;;;;;;18.64;85.61;98794.66;1087556;54;19943;-85
2022/09/14 04:12:46;;;;;;;;;;;;;;;18.65;85.01;98785.50;1087647;54;19943;-85
2022/09/14 04:13:50;;;;;;;;;;;;;;;18.65;85.31;98781.94;1087618;54;19946;-85
2022/09/14 04:14:51;;;;;;;;;;;;;;;18.70;84.83;98773.97;1091618;39;20621;-84
2022/09/14 04:15:58;;;;;;;;;;;;;;;18.72;84.64;98766.44;1087597;54;19942;-87
2022/09/14 04:17:02;;;;;;;;;;;;;;;18.76;84.43;98769.50;1087645;54;19942;-85
2022/09/14 04:18:03;;;;;;;;;;;;;;;18.77;83.93;98766.59;1087735;54;19946;-84
2022/09/14 04:19:07;;;;;;;;;;;;;;;18.77;83.81;98763.03;1087620;54;19950;-85
2022/09/14 04:20:11;;;;;;;;;;;;;;;18.78;84.19;98765.53;1087776;54;19943;-87
2022/09/14 04:21:15;;;;;;;;;;;;;;;18.77;83.73;98766.59;1087666;54;19965;-86
2022/09/14 04:22:16;;;;;;;;;;;;;;;18.76;84.74;98774.91;1087844;54;19958;-85
2022/09/14 04:23:20;;;;;;;;;;;;;;;18.76;84.64;98783.03;1087689;54;19943;-88
2022/09/14 04:24:21;;;;;;;;;;;;;;;18.52;86.15;98797.28;1088044;54;19942;-85
2022/09/14 04:25:25;;;;;;;;;;;;;;;18.40;87.19;98793.72;1088107;54;19950;-85
2022/09/14 04:26:27;;;;;;;;;;;;;;;18.44;87.47;98807.63;1089813;46;20193;-85
2022/09/14 04:27:31;;;;;;;;;;;;;;;18.53;86.81;98807.06;1090081;46;19945;-84
2022/09/14 04:28:32;;;;;;;;;;;;;;;18.51;87.38;98811.91;1087938;54;19950;-84
2022/09/14 04:29:36;;;;;;;;;;;;;;;18.43;88.31;98828.41;1088092;46;19957;-84
2022/09/14 04:30:37;;;;;;;;;;;;;;;18.49;87.47;98830.22;1087793;54;19938;-84
2022/09/14 04:31:40;;;;;;;;;;;;;;;18.54;87.76;98829.56;1087595;54;19971;-86
2022/09/14 04:32:43;;;;;;;;;;;;;;;18.51;87.43;98828.13;1087779;54;20018;-88
2022/09/14 04:33:49;;;;;;;;;;;;;;;18.58;87.19;98808.28;1089059;46;19942;-84
2022/09/14 04:34:50;;;;;;;;;;;;;;;18.57;87.68;98814.75;1087596;54;19942;-84
2022/09/14 04:36:00;;;;;;;;;;;;;;;18.39;88.40;98819.94;1087504;54;19949;-84
2022/09/14 04:37:04;;;;;;;;;;;;;;;18.30;90.21;98821.28;1088863;46;19950;-85
2022/09/14 04:38:05;;;;;;;;;;;;;;;18.23;91.08;98818.63;1087517;54;19942;-85
2022/09/14 04:39:09;;;;;;;;;;;;;;;18.24;91.47;98812.19;1087534;54;19946;-83
2022/09/14 04:40:10;;;;;;;;;;;;;;;18.29;91.00;98808.00;1087589;54;19950;-84
2022/09/14 04:41:14;;;;;;;;;;;;;;;18.31;90.97;98800.47;1087548;54;19942;-81
2022/09/14 04:42:15;;;;;;;;;;;;;;;18.36;90.45;98796.06;1087648;54;20581;-84
2022/09/14 04:43:19;;;;;;;;;;;;;;;18.38;90.21;98801.22;1088481;46;19954;-84
2022/09/14 04:44:20;;;;;;;;;;;;;;;18.33;90.96;98801.06;1089428;46;19938;-84
2022/09/14 04:45:25;;;;;;;;;;;;;;;18.36;90.40;98785.22;1087714;54;19978;-83
2022/09/14 04:46:27;;;;;;;;;;;;;;;18.37;90.13;98784.16;1088692;47;19950;-83
2022/09/14 04:47:31;;;;;;;;;;;;;;;18.40;90.02;98796.41;1087659;54;19945;-82
2022/09/14 04:48:33;;;;;;;;;;;;;;;18.37;90.34;98794.97;1087544;54;19994;-82
2022/09/14 04:49:37;;;;;;;;;;;;;;;18.27;91.65;98800.09;1087677;46;19933;-84
2022/09/14 04:50:38;;;;;;;;;;;;;;;18.08;93.21;98796.56;1087500;54;19942;-85
2022/09/14 04:51:45;;;;;;;;;;;;;;;18.08;94.10;98792.00;1087417;54;20214;-84
2022/09/14 04:52:46;;;;;;;;;;;;;;;18.15;93.44;98789.19;1087929;39;20558;-84
2022/09/14 04:53:51;;;;;;;;;;;;;;;18.19;93.21;98793.13;1087515;54;19943;-82
2022/09/14 04:54:52;;;;;;;;;;;;;;;18.20;92.47;98797.47;1090438;46;19982;-81
2022/09/14 04:56:00;;;;;;;;;;;;;;;18.17;93.12;98806.03;1087510;54;19927;-84
2022/09/14 04:57:04;;;;;;;;;;;;;;;18.10;94.19;98805.28;1087474;54;19942;-83
2022/09/14 04:58:05;;;;;;;;;;;;;;;18.06;94.66;98804.91;1087546;54;20634;-82
2022/09/14 04:59:06;;;;;;;;;;;;;;;18.04;94.56;98806.19;1087513;54;19942;-83
2022/09/14 05:00:11;;;;;;;;;;;;;;;18.08;94.25;98802.81;1087504;54;19942;-83
2022/09/14 05:01:13;;;;;;;;;;;;;;;18.11;94.03;98801.53;1087341;54;19950;-82
2022/09/14 05:02:17;;;;;;;;;;;;;;;18.07;94.61;98803.00;1087347;54;19943;-82
2022/09/14 05:03:18;;;;;;;;;;;;;;;18.06;93.86;98799.50;1087481;54;19950;-82
2022/09/14 05:04:22;;;;;;;;;;;;;;;18.10;93.70;98789.06;1087476;54;19931;-81
2022/09/14 05:05:23;;;;;;;;;;;;;;;18.13;93.38;98788.63;1087420;54;19938;-81
2022/09/14 05:06:28;;;;;;;;;;;;;;;18.10;93.61;98794.47;1087390;54;19951;-83
2022/09/14 05:07:31;;;;;;;;;;;;;;;18.08;93.76;98791.16;1087442;54;19947;-84
2022/09/14 05:08:37;;;;;;;;;;;;;;;18.12;93.47;98794.22;1087455;54;19957;-82
2022/09/14 05:09:41;;;;;;;;;;;;;;;18.04;94.26;98796.19;1087479;54;19943;-87
2022/09/14 05:10:42;;;;;;;;;;;;;;;18.04;94.19;98787.25;1087486;54;19962;-85
2022/09/14 05:11:48;;;;;;;;;;;;;;;18.08;94.01;98791.16;1088593;46;19943;-84
2022/09/14 05:12:49;;;;;;;;;;;;;;;18.04;93.84;98800.78;1087449;54;19966;-86
2022/09/14 05:13:53;;;;;;;;;;;;;;;17.95;96.09;98802.09;1087524;54;19958;-86
2022/09/14 05:14:54;;;;;;;;;;;;;;;17.99;95.61;98803.31;1087506;54;19942;-85
2022/09/14 05:16:06;;;;;;;;;;;;;;;18.00;95.48;98794.97;1087500;54;19949;-86
2022/09/14 05:17:07;;;;;;;;;;;;;;;17.94;95.75;98806.66;1087468;54;19945;-86
2022/09/14 05:18:11;;;;;;;;;;;;;;;17.96;95.86;98804.59;1087526;54;19949;-87
2022/09/14 05:19:13;;;;;;;;;;;;;;;17.95;96.15;98802.91;1087487;54;20002;-85
2022/09/14 05:20:17;;;;;;;;;;;;;;;17.95;96.75;98796.69;1087549;54;19983;-87
2022/09/14 05:21:19;;;;;;;;;;;;;;;17.95;96.24;98807.50;1087753;46;19951;-86
2022/09/14 05:22:23;;;;;;;;;;;;;;;17.96;96.37;98810.00;1088303;46;20063;-83
2022/09/14 05:23:26;;;;;;;;;;;;;;;17.96;96.67;98809.13;1087391;54;19961;-83
2022/09/14 05:24:30;;;;;;;;;;;;;;;17.90;97.14;98817.09;1087502;54;19994;-86
2022/09/14 05:25:31;;;;;;;;;;;;;;;17.96;96.94;98804.59;1087456;54;19949;-87
2022/09/14 05:26:35;;;;;;;;;;;;;;;17.99;96.87;98798.75;1087425;54;19942;-85
2022/09/14 05:27:36;;;;;;;;;;;;;;;17.98;96.89;98807.06;1087559;54;19950;-87
2022/09/14 05:28:40;;;;;;;;;;;;;;;17.95;97.13;98802.91;1087547;54;19942;-85
2022/09/14 05:29:43;;;;;;;;;;;;;;;17.89;97.89;98810.03;1087518;54;19942;-87
2022/09/14 05:30:44;;;;;;;;;;;;;;;17.85;98.65;98810.69;1087424;54;20812;-86
2022/09/14 05:31:48;;;;;;;;;;;;;;;17.81;99.10;98802.22;1088671;39;20700;-87
2022/09/14 05:32:49;;;;;;;;;;;;;;;17.85;98.80;98803.44;1087282;54;19949;-84
2022/09/14 05:33:53;;;;;;;;;;;;;;;17.88;98.85;98804.84;1088032;46;19954;-86
2022/09/14 05:34:54;;;;;;;;;;;;;;;17.92;98.34;98803.34;1087415;54;19947;-84